Time;durP1;ratioP1;P1;durP2;ratioP2;P2;SDS_P1;SDS_P2;PMS_P1;PMS_P2;Temp;Humidity;BMP_temperature;BMP_pressure;BME280_temperature;BME280_humidity;BME280_pressure;Samples;Min_cycle;Max_cycle;Signal;HPM_P1;HPM_P2
2022/06/01 00:00:02;;;;;;;3.65;1.15;;;13.40;69.20;;;;;;5070197;28;20059;-74
2022/06/01 00:02:30;;;;;;;1.95;0.90;;;13.30;69.20;;;;;;5050746;28;20111;-74
2022/06/01 00:04:57;;;;;;;1.60;1.00;;;13.40;69.10;;;;;;5070309;28;20554;-78
2022/06/01 00:07:25;;;;;;;2.03;0.90;;;13.30;69.30;;;;;;5068876;28;20122;-77
2022/06/01 00:09:54;;;;;;;2.60;1.08;;;13.30;69.60;;;;;;5068644;28;21446;-73
2022/06/01 00:12:21;;;;;;;2.72;0.85;;;13.20;69.90;;;;;;5070944;28;20491;-73
2022/06/01 00:14:48;;;;;;;2.35;0.93;;;13.20;69.70;;;;;;5069610;28;20445;-77
2022/06/01 00:17:16;;;;;;;2.10;1.08;;;13.20;69.70;;;;;;5059103;28;20404;-74
2022/06/01 00:19:44;;;;;;;2.53;1.00;;;13.20;69.80;;;;;;5072176;28;20079;-73
2022/06/01 00:22:14;;;;;;;2.83;1.02;;;13.20;69.60;;;;;;5078632;28;20054;-75
2022/06/01 00:24:42;;;;;;;1.88;0.98;;;13.20;69.80;;;;;;5067096;28;20408;-74
2022/06/01 00:27:11;;;;;;;2.72;1.08;;;13.10;69.80;;;;;;5078916;28;20043;-75
2022/06/01 00:29:38;;;;;;;2.03;1.08;;;13.10;69.90;;;;;;5077603;28;20146;-78
2022/06/01 00:32:07;;;;;;;1.40;0.73;;;13.10;69.70;;;;;;5072870;28;20059;-79
2022/06/01 00:34:34;;;;;;;2.20;1.00;;;13.20;69.70;;;;;;5077632;28;20041;-72
2022/06/01 00:37:03;;;;;;;2.60;1.35;;;13.10;70.00;;;;;;5081812;28;20071;-78
2022/06/01 00:39:32;;;;;;;1.63;0.90;;;13.00;70.00;;;;;;5080426;28;20059;-72
2022/06/01 00:42:12;;;;;;;2.15;1.08;;;13.00;70.40;;;;;;5080743;28;20048;-74
2022/06/01 00:44:39;;;;;;;2.03;1.00;;;13.00;70.30;;;;;;5080733;28;20468;-74
2022/06/01 00:47:08;;;;;;;2.65;1.02;;;13.10;70.10;;;;;;5062483;28;20411;-73
2022/06/01 00:49:37;;;;;;;2.72;0.90;;;13.10;70.00;;;;;;5076739;28;20507;-73
2022/06/01 00:52:06;;;;;;;1.75;0.98;;;13.10;69.90;;;;;;5078659;28;20086;-73
2022/06/01 00:54:33;;;;;;;2.17;1.10;;;13.10;70.10;;;;;;5049422;28;20052;-75
2022/06/01 00:57:07;;;;;;;2.40;0.95;;;13.10;70.10;;;;;;5074515;28;20110;-74
2022/06/01 00:59:39;;;;;;;2.15;1.10;;;13.10;70.10;;;;;;5067828;28;20094;-73
2022/06/01 01:02:07;;;;;;;5.70;1.10;;;13.00;70.10;;;;;;5066366;28;20048;-72
2022/06/01 01:04:36;;;;;;;1.70;0.88;;;13.00;70.20;;;;;;5070334;28;20058;-73
2022/06/01 01:07:09;;;;;;;2.05;1.10;;;13.00;70.20;;;;;;5068431;28;20092;-74
2022/06/01 01:09:36;;;;;;;3.08;1.10;;;13.00;70.20;;;;;;5065262;28;20527;-74
2022/06/01 01:12:06;;;;;;;3.40;1.30;;;12.90;70.40;;;;;;5077664;28;20504;-75
2022/06/01 01:14:36;;;;;;;;;;;12.90;70.60;;;;;;5078015;28;20036;-73
2022/06/01 01:17:05;;;;;;;2.10;1.10;;;12.90;70.70;;;;;;5069138;28;19930;-76
2022/06/01 01:19:35;;;;;;;3.13;1.30;;;12.80;70.70;;;;;;5073339;28;20036;-74
2022/06/01 01:22:15;;;;;;;2.53;1.25;;;12.80;70.80;;;;;;5075302;28;20068;-75
2022/06/01 01:25:10;;;;;;;3.33;0.93;;;12.90;70.70;;;;;;5058137;28;20071;-74
2022/06/01 01:27:38;;;;;;;1.92;0.85;;;12.80;70.80;;;;;;5058559;28;20436;-73
2022/06/01 01:30:39;;;;;;;2.63;1.10;;;12.80;71.00;;;;;;5058499;28;20052;-74
2022/06/01 01:33:08;;;;;;;2.40;1.13;;;12.80;71.10;;;;;;5074546;28;20123;-72
2022/06/01 01:35:40;;;;;;;2.20;1.13;;;12.70;71.40;;;;;;5059175;28;20056;-77
2022/06/01 01:38:14;;;;;;;3.47;1.17;;;12.60;71.60;;;;;;5067545;28;20040;-75
2022/06/01 01:40:42;;;;;;;4.93;1.30;;;12.60;71.80;;;;;;5055920;28;20063;-73
2022/06/01 01:43:10;;;;;;;3.00;1.30;;;12.60;72.00;;;;;;5056984;28;20075;-76
2022/06/01 01:45:40;;;;;;;2.15;1.05;;;12.60;72.00;;;;;;5076657;28;20146;-76
2022/06/01 01:48:07;;;;;;;3.13;1.20;;;12.60;72.00;;;;;;5075807;28;20792;-74
2022/06/01 01:50:34;;;;;;;3.40;1.55;;;12.60;72.00;;;;;;5059097;28;20056;-75
2022/06/01 01:53:01;;;;;;;2.95;1.10;;;12.60;72.20;;;;;;5075255;28;20099;-74
2022/06/01 01:55:40;;;;;;;2.25;1.00;;;12.50;72.30;;;;;;5058983;28;20057;-75
2022/06/01 01:58:17;;;;;;;4.30;1.45;;;12.50;72.40;;;;;;5044008;28;20054;-73
2022/06/01 02:00:51;;;;;;;3.13;1.30;;;12.50;72.30;;;;;;5068992;28;20403;-75
2022/06/01 02:03:24;;;;;;;1.58;1.08;;;12.50;72.30;;;;;;5073904;28;20050;-73
2022/06/01 02:06:04;;;;;;;1.67;0.82;;;12.50;72.20;;;;;;5058747;28;20535;-78
2022/06/01 02:08:34;;;;;;;3.83;1.52;;;12.50;72.10;;;;;;5071463;28;20036;-74
2022/06/01 02:13:59;;;;;;;5.72;1.30;;;12.40;72.30;;;;;;5074823;28;20041;-72
2022/06/01 02:16:29;;;;;;;2.28;1.20;;;12.30;72.40;;;;;;5042562;28;20044;-74
2022/06/01 02:18:57;;;;;;;;;;;12.30;72.30;;;;;;5079731;28;20045;-76
2022/06/01 02:21:27;;;;;;;2.63;1.05;;;12.30;72.30;;;;;;5075049;28;19924;-77
2022/06/01 02:23:55;;;;;;;3.03;1.48;;;12.30;72.20;;;;;;5075439;28;20046;-76
2022/06/01 02:26:22;;;;;;;2.58;1.33;;;12.20;72.20;;;;;;5078136;28;20036;-74
2022/06/01 02:28:55;;;;;;;2.83;1.05;;;12.20;72.40;;;;;;5069779;28;20047;-76
2022/06/01 02:31:25;;;;;;;4.00;1.50;;;12.20;72.40;;;;;;5057611;28;20421;-76
2022/06/01 02:33:53;;;;;;;1.63;1.00;;;12.10;72.30;;;;;;5073780;28;20122;-77
2022/06/01 02:36:22;;;;;;;4.38;1.20;;;12.20;72.40;;;;;;5076810;28;20089;-75
2022/06/01 02:38:51;;;;;;;2.25;1.08;;;12.10;72.60;;;;;;5076662;28;20044;-75
2022/06/01 02:44:03;;;;;;;5.90;1.30;;;12.00;72.80;;;;;;5048694;28;20049;-78
2022/06/01 02:46:32;;;;;;;5.53;1.38;;;11.90;72.80;;;;;;5048185;28;20121;-75
2022/06/01 02:49:00;;;;;;;2.47;1.25;;;11.90;72.80;;;;;;5049480;28;20043;-75
2022/06/01 02:51:27;;;;;;;3.20;1.25;;;11.80;73.00;;;;;;5031518;28;20041;-72
2022/06/01 02:53:55;;;;;;;3.42;1.35;;;11.80;73.10;;;;;;5031050;28;20408;-77
2022/06/01 02:56:24;;;;;;;2.53;1.25;;;11.80;72.90;;;;;;5026283;28;20060;-75
2022/06/01 02:58:51;;;;;;;3.93;1.67;;;11.70;73.00;;;;;;5056944;28;20055;-76
2022/06/01 03:01:18;;;;;;;3.17;1.60;;;11.70;73.10;;;;;;5050880;28;20478;-76
2022/06/01 03:03:47;;;;;;;4.03;1.58;;;11.80;73.10;;;;;;5055955;28;20055;-76
2022/06/01 03:06:14;;;;;;;3.88;1.30;;;11.70;72.90;;;;;;5053955;28;20047;-77
2022/06/01 03:08:42;;;;;;;2.53;1.40;;;11.70;72.90;;;;;;5055138;28;20405;-73
2022/06/01 03:11:09;;;;;;;2.83;1.30;;;11.70;73.00;;;;;;5046560;28;20128;-75
2022/06/01 03:13:36;;;;;;;1.92;1.02;;;11.70;73.10;;;;;;5055832;28;20041;-77
2022/06/01 03:16:03;;;;;;;4.55;0.90;;;11.60;73.20;;;;;;5054850;28;20047;-74
2022/06/01 03:18:31;;;;;;;2.58;1.30;;;11.60;73.10;;;;;;5053652;28;20061;-73
2022/06/01 03:21:00;;;;;;;3.15;1.23;;;11.60;73.10;;;;;;5053803;28;20503;-76
2022/06/01 03:23:28;;;;;;;2.13;1.20;;;11.60;73.10;;;;;;5021761;28;20512;-75
2022/06/01 03:25:55;;;;;;;2.28;1.05;;;11.60;73.20;;;;;;5055023;28;20047;-73
2022/06/01 03:28:23;;;;;;;2.05;1.17;;;11.50;73.30;;;;;;5037827;28;20052;-75
2022/06/01 03:30:50;;;;;;;3.28;1.00;;;11.50;73.30;;;;;;5025956;28;20044;-75
2022/06/01 03:33:18;;;;;;;2.17;0.90;;;11.50;73.30;;;;;;5054112;28;20028;-75
2022/06/01 03:35:45;;;;;;;1.83;0.85;;;11.50;73.40;;;;;;5055962;28;20064;-75
2022/06/01 03:38:13;;;;;;;2.45;1.02;;;11.40;73.50;;;;;;5052383;28;20060;-75
2022/06/01 03:40:42;;;;;;;2.20;1.00;;;11.40;73.50;;;;;;5055845;28;20579;-76
2022/06/01 03:43:11;;;;;;;1.23;0.75;;;11.40;73.40;;;;;;5061219;28;20137;-75
2022/06/01 03:45:55;;;;;;;2.13;1.15;;;11.50;73.40;;;;;;5069277;28;20048;-74
2022/06/01 03:48:23;;;;;;;4.13;1.40;;;11.50;73.40;;;;;;5068374;28;20025;-75
2022/06/01 03:50:51;;;;;;;4.00;1.25;;;11.40;73.60;;;;;;5066959;28;20445;-77
2022/06/01 03:53:20;;;;;;;3.67;1.10;;;11.40;73.70;;;;;;5078024;28;20399;-76
2022/06/01 03:55:47;;;;;;;1.90;0.90;;;11.40;73.80;;;;;;5054595;28;20044;-72
2022/06/01 03:58:15;;;;;;;5.10;1.30;;;11.30;74.00;;;;;;5077116;28;20058;-72
2022/06/01 04:00:43;;;;;;;3.50;1.40;;;11.40;74.10;;;;;;5039533;28;20050;-76
2022/06/01 04:03:10;;;;;;;4.25;1.65;;;11.40;74.10;;;;;;5074553;28;20043;-76
2022/06/01 04:05:38;;;;;;;2.15;1.25;;;11.30;74.30;;;;;;5061824;28;20044;-77
2022/06/01 04:08:06;;;;;;;1.75;1.23;;;11.30;74.40;;;;;;5082173;28;20044;-74
2022/06/01 04:10:36;;;;;;;2.70;1.20;;;11.30;74.50;;;;;;5075910;28;20365;-74
2022/06/01 04:13:04;;;;;;;2.75;1.50;;;11.30;74.50;;;;;;5069430;28;20119;-77
2022/06/01 04:15:31;;;;;;;2.38;1.13;;;11.30;74.40;;;;;;5076592;28;20087;-75
2022/06/01 04:17:58;;;;;;;3.58;1.23;;;11.30;74.30;;;;;;5071063;28;20059;-74
2022/06/01 04:20:25;;;;;;;1.63;1.02;;;11.40;74.20;;;;;;5060188;28;20051;-73
2022/06/01 04:22:54;;;;;;;2.20;1.08;;;11.30;74.20;;;;;;5076599;28;20040;-75
2022/06/01 04:25:22;;;;;;;2.53;1.02;;;11.30;74.10;;;;;;5072083;28;20599;-75
2022/06/01 04:27:51;;;;;;;2.65;1.17;;;11.30;74.20;;;;;;5061483;28;20525;-76
2022/06/01 04:30:20;;;;;;;2.97;1.17;;;11.40;74.20;;;;;;5071491;28;20562;-74
2022/06/01 04:32:48;;;;;;;3.20;1.10;;;11.40;74.10;;;;;;5076768;28;20492;-78
2022/06/01 04:35:16;;;;;;;1.60;0.80;;;11.40;74.10;;;;;;5073517;28;20047;-76
2022/06/01 04:37:43;;;;;;;1.80;0.95;;;11.40;74.10;;;;;;5077091;28;20040;-78
2022/06/01 04:40:11;;;;;;;2.80;1.08;;;11.40;74.40;;;;;;5075819;28;20041;-77
2022/06/01 04:42:39;;;;;;;2.72;1.00;;;11.50;74.40;;;;;;5077923;28;20094;-76
2022/06/01 04:45:10;;;;;;;3.47;1.10;;;11.50;74.50;;;;;;5059336;28;20067;-77
2022/06/01 04:47:37;;;;;;;3.60;1.50;;;11.50;74.50;;;;;;5077278;28;20072;-73
2022/06/01 04:50:06;;;;;;;2.47;1.17;;;11.50;74.60;;;;;;5072431;28;20041;-77
2022/06/01 04:52:33;;;;;;;1.63;0.90;;;11.50;74.70;;;;;;5072551;28;20052;-75
2022/06/01 04:55:01;;;;;;;2.65;1.35;;;11.50;74.80;;;;;;5077727;28;20551;-73
2022/06/01 04:57:28;;;;;;;2.25;1.30;;;11.60;74.80;;;;;;5078218;28;20052;-76
2022/06/01 04:59:55;;;;;;;3.17;1.02;;;11.60;74.90;;;;;;5079477;28;20492;-72
2022/06/01 05:02:24;;;;;;;1.98;1.25;;;11.70;75.00;;;;;;5053816;28;20591;-76
2022/06/01 05:04:51;;;;;;;1.92;1.20;;;11.70;75.20;;;;;;5080163;28;20052;-76
2022/06/01 05:07:18;;;;;;;3.45;1.35;;;11.80;75.00;;;;;;5080071;28;20036;-74
2022/06/01 05:09:45;;;;;;;2.40;1.10;;;11.90;74.90;;;;;;5044336;28;20135;-76
2022/06/01 05:12:12;;;;;;;2.78;1.17;;;12.00;74.80;;;;;;5079274;28;20119;-75
2022/06/01 05:14:39;;;;;;;1.67;1.02;;;12.00;74.70;;;;;;5079062;28;20492;-76
2022/06/01 05:17:14;;;;;;;1.75;1.05;;;12.10;74.60;;;;;;5075349;28;20100;-75
2022/06/01 05:19:42;;;;;;;4.55;1.02;;;12.10;74.80;;;;;;5078008;28;20686;-77
2022/06/01 05:22:09;;;;;;;3.38;0.93;;;12.10;74.80;;;;;;5077706;28;20044;-75
2022/06/01 05:24:36;;;;;;;4.13;1.10;;;12.10;74.80;;;;;;5079198;28;20079;-77
2022/06/01 05:27:03;;;;;;;3.42;1.33;;;12.00;74.80;;;;;;5077412;28;20491;-76
2022/06/01 05:29:30;;;;;;;3.40;1.13;;;12.10;74.70;;;;;;5077972;28;20127;-74
2022/06/01 05:31:57;;;;;;;2.67;1.50;;;12.10;74.60;;;;;;5078161;28;20119;-77
2022/06/01 05:34:24;;;;;;;3.35;1.38;;;12.20;74.50;;;;;;5060710;28;20048;-77
2022/06/01 05:36:52;;;;;;;4.85;1.30;;;12.30;74.10;;;;;;5077107;28;20058;-77
2022/06/01 05:39:19;;;;;;;5.97;1.30;;;12.40;73.90;;;;;;5079298;28;20047;-73
2022/06/01 05:41:46;;;;;;;2.42;1.33;;;12.40;73.60;;;;;;5060727;28;20048;-75
2022/06/01 05:44:14;;;;;;;3.83;1.50;;;12.50;73.50;;;;;;5079799;28;20053;-75
2022/06/01 05:46:41;;;;;;;4.55;1.58;;;12.50;73.70;;;;;;5076843;28;20101;-77
2022/06/01 05:49:08;;;;;;;3.83;1.38;;;12.60;73.70;;;;;;5074534;28;20051;-75
2022/06/01 05:51:35;;;;;;;2.58;1.48;;;12.60;73.70;;;;;;5062254;28;20048;-75
2022/06/01 05:54:05;;;;;;;3.47;1.70;;;12.60;73.60;;;;;;5078507;28;20110;-77
2022/06/01 05:56:32;;;;;;;3.58;1.30;;;12.60;73.60;;;;;;5061060;28;20130;-77
2022/06/01 05:58:59;;;;;;;4.28;1.50;;;12.60;73.70;;;;;;5061320;28;20117;-77
2022/06/01 06:01:26;;;;;;;2.92;1.27;;;12.60;73.90;;;;;;5057025;28;20511;-77
2022/06/01 06:03:53;;;;;;;2.92;1.25;;;12.60;73.90;;;;;;5079284;28;20045;-77
2022/06/01 06:06:22;;;;;;;2.83;1.20;;;12.70;73.80;;;;;;5072638;28;20035;-78
2022/06/01 06:08:51;;;;;;;3.03;1.60;;;12.70;73.50;;;;;;5055427;28;20071;-75
2022/06/01 06:11:20;;;;;;;3.22;1.52;;;12.70;73.90;;;;;;5069821;28;20617;-76
2022/06/01 06:13:48;;;;;;;2.95;1.58;;;12.70;74.00;;;;;;5068990;28;20119;-76
2022/06/01 06:16:17;;;;;;;2.83;1.50;;;12.70;74.30;;;;;;5047850;28;20049;-76
2022/06/01 06:18:44;;;;;;;3.30;1.87;;;12.70;74.50;;;;;;5069197;28;20127;-77
2022/06/01 06:21:12;;;;;;;3.72;1.50;;;12.70;74.70;;;;;;5071687;28;20135;-76
2022/06/01 06:23:39;;;;;;;3.72;1.52;;;12.70;74.80;;;;;;5067317;28;20099;-76
2022/06/01 06:26:07;;;;;;;3.40;1.60;;;12.80;74.80;;;;;;5063758;28;20548;-76
2022/06/01 06:28:37;;;;;;;4.40;1.83;;;12.90;74.80;;;;;;5075429;28;20044;-77
2022/06/01 06:31:04;;;;;;;3.53;1.40;;;13.00;74.90;;;;;;5074263;28;20110;-76
2022/06/01 06:33:31;;;;;;;3.40;1.73;;;13.10;74.80;;;;;;5076291;28;20052;-78
2022/06/01 06:36:01;;;;;;;5.28;1.70;;;13.20;74.50;;;;;;5067548;28;20044;-75
2022/06/01 06:38:31;;;;;;;4.15;1.92;;;13.30;74.40;;;;;;5074369;28;20086;-76
2022/06/01 06:40:59;;;;;;;3.90;1.90;;;13.40;74.20;;;;;;5068469;28;20419;-75
2022/06/01 06:43:28;;;;;;;4.22;1.73;;;13.60;74.00;;;;;;5065324;28;20459;-77
2022/06/01 06:46:00;;;;;;;4.15;1.95;;;13.70;73.70;;;;;;5068041;28;20040;-76
2022/06/01 06:48:28;;;;;;;3.67;2.33;;;13.90;73.50;;;;;;5067005;28;20563;-77
2022/06/01 06:50:55;;;;;;;3.47;2.05;;;14.00;73.40;;;;;;5066638;28;20399;-77
2022/06/01 06:53:22;;;;;;;4.05;2.03;;;14.10;72.90;;;;;;5050442;28;21353;-77
2022/06/01 06:55:49;;;;;;;4.35;2.25;;;14.30;72.30;;;;;;5066044;28;20036;-75
2022/06/01 06:58:17;;;;;;;6.28;3.00;;;14.50;71.90;;;;;;5066804;28;20053;-75
2022/06/01 07:00:44;;;;;;;7.00;2.97;;;14.60;71.60;;;;;;5052200;28;20047;-79
2022/06/01 07:03:13;;;;;;;4.65;2.60;;;14.70;71.70;;;;;;5058137;28;20055;-76
2022/06/01 07:08:25;;;;;;;5.30;2.42;;;15.10;71.10;;;;;;5079952;28;20779;-76
2022/06/01 07:10:53;;;;;;;4.68;1.83;;;15.20;70.60;;;;;;5078835;28;20418;-79
2022/06/01 07:13:21;;;;;;;3.83;1.75;;;15.40;70.40;;;;;;5073765;28;20051;-75
2022/06/01 07:15:48;;;;;;;3.33;1.50;;;15.50;69.50;;;;;;5066138;28;20047;-76
2022/06/01 07:18:17;;;;;;;4.00;1.75;;;15.60;69.10;;;;;;5067234;28;20454;-76
2022/06/01 07:20:44;;;;;;;3.03;1.60;;;15.70;69.00;;;;;;5052870;28;20049;-74
2022/06/01 07:23:11;;;;;;;3.55;1.60;;;15.80;69.50;;;;;;5068194;28;20056;-76
2022/06/01 07:25:38;;;;;;;3.17;1.33;;;16.00;68.60;;;;;;5066304;28;20040;-76
2022/06/01 07:28:05;;;;;;;2.63;1.40;;;16.10;68.30;;;;;;5035803;28;20051;-77
2022/06/01 07:30:32;;;;;;;3.00;1.33;;;16.20;68.90;;;;;;5073395;28;20083;-74
2022/06/01 07:32:59;;;;;;;3.47;1.35;;;16.40;69.00;;;;;;5049460;28;20084;-76
2022/06/01 07:35:28;;;;;;;2.40;1.27;;;16.50;67.50;;;;;;5048750;28;20052;-78
2022/06/01 07:43:23;;;;;;;3.17;1.40;;;16.90;65.80;;;;;;5067014;28;20511;-74
2022/06/01 07:45:51;;;;;;;3.22;1.25;;;17.10;64.40;;;;;;5055473;28;20052;-77
2022/06/01 07:48:18;;;;;;;2.85;1.40;;;17.20;65.30;;;;;;5068552;28;20106;-77
2022/06/01 07:50:50;;;;;;;2.38;1.10;;;17.30;64.00;;;;;;5067174;28;20142;-76
2022/06/01 07:53:18;;;;;;;3.13;1.75;;;17.40;63.60;;;;;;5067888;28;20557;-78
2022/06/01 07:55:45;;;;;;;2.72;1.40;;;17.50;63.30;;;;;;5071475;28;20502;-73
2022/06/01 07:58:12;;;;;;;3.50;1.48;;;17.60;62.70;;;;;;5071131;28;20060;-72
2022/06/01 08:00:39;;;;;;;2.90;1.30;;;17.70;63.10;;;;;;5068207;28;20123;-77
2022/06/01 08:03:11;;;;;;;3.55;1.58;;;17.80;62.10;;;;;;5052576;28;20056;-75
2022/06/01 08:05:39;;;;;;;3.33;1.40;;;17.90;62.60;;;;;;5052892;28;20048;-80
2022/06/01 08:08:07;;;;;;;5.15;2.08;;;18.10;62.90;;;;;;5066714;28;20047;-76
2022/06/01 08:10:36;;;;;;;4.03;1.77;;;18.10;62.50;;;;;;5068671;28;20052;-73
2022/06/01 08:13:06;;;;;;;2.92;1.70;;;18.30;61.50;;;;;;5053935;28;20060;-78
2022/06/01 08:15:34;;;;;;;3.22;1.50;;;18.40;61.50;;;;;;5069633;28;20042;-76
2022/06/01 08:18:01;;;;;;;4.82;1.50;;;18.50;61.10;;;;;;5064701;28;20044;-75
2022/06/01 08:20:30;;;;;;;2.63;1.45;;;18.60;60.80;;;;;;5069241;28;20163;-78
2022/06/01 08:22:58;;;;;;;5.03;1.70;;;18.60;62.00;;;;;;5056774;28;20126;-78
2022/06/01 08:25:27;;;;;;;7.32;2.97;;;18.70;61.70;;;;;;5050513;28;20048;-77
2022/06/01 08:27:54;;;;;;;8.10;3.50;;;18.80;60.40;;;;;;5052447;28;20411;-75
2022/06/01 08:30:24;;;;;;;7.15;3.38;;;18.80;59.60;;;;;;5048807;28;20705;-78
2022/06/01 08:32:53;;;;;;;5.18;2.58;;;18.90;59.70;;;;;;5053833;28;20086;-77
2022/06/01 08:35:23;;;;;;;7.10;2.70;;;19.00;59.30;;;;;;5062209;28;20059;-75
2022/06/01 08:37:50;;;;;;;;;;;19.10;60.50;;;;;;5067685;28;20537;-78
2022/06/01 08:40:19;;;;;;;2.92;1.50;;;19.20;60.30;;;;;;5069691;28;20014;-77
2022/06/01 08:42:53;;;;;;;3.95;1.35;;;19.30;60.70;;;;;;5050637;28;20058;-78
2022/06/01 08:45:22;;;;;;;5.47;1.27;;;19.50;59.20;;;;;;5048561;28;20102;-75
2022/06/01 08:47:49;;;;;;;4.30;1.55;;;19.60;59.00;;;;;;5050462;28;20087;-74
2022/06/01 08:50:22;;;;;;;5.50;2.03;;;19.70;58.50;;;;;;5055201;28;20044;-77
2022/06/01 08:52:49;;;;;;;9.07;1.35;;;19.80;57.60;;;;;;5030518;28;20072;-77
2022/06/01 08:55:17;;;;;;;1.98;0.80;;;19.90;55.50;;;;;;5054152;28;20456;-77
2022/06/01 08:57:52;;;;;;;2.10;1.25;;;20.00;55.30;;;;;;5060925;28;20064;-77
2022/06/01 09:00:21;;;;;;;2.40;0.88;;;20.10;55.80;;;;;;5037058;28;20519;-78
2022/06/01 09:02:58;;;;;;;2.15;0.65;;;20.10;53.80;;;;;;5039673;28;20092;-74
2022/06/01 09:05:32;;;;;;;2.97;0.80;;;20.20;53.80;;;;;;5056062;28;20060;-75
2022/06/01 09:08:06;;;;;;;1.55;0.80;;;20.50;53.30;;;;;;5060698;28;20433;-75
2022/06/01 09:10:48;;;;;;;2.22;0.93;;;20.70;52.50;;;;;;5051623;28;20123;-76
2022/06/01 09:13:23;;;;;;;1.80;0.90;;;20.80;51.60;;;;;;5051101;28;20513;-78
2022/06/01 09:15:54;;;;;;;2.90;1.10;;;21.00;51.20;;;;;;5049995;28;20395;-76
2022/06/01 09:18:24;;;;;;;2.20;1.02;;;20.90;51.10;;;;;;5052549;28;20576;-77
2022/06/01 09:23:35;;;;;;;2.80;0.90;;;20.70;49.40;;;;;;5020789;28;20127;-77
2022/06/01 09:26:03;;;;;;;1.45;0.70;;;20.60;49.30;;;;;;5032575;28;20159;-76
2022/06/01 09:28:38;;;;;;;2.13;0.70;;;20.70;50.30;;;;;;5048859;28;20041;-78
2022/06/01 09:31:21;;;;;;;2.45;0.85;;;20.80;50.40;;;;;;5017849;28;20045;-78
2022/06/01 09:33:49;;;;;;;1.95;0.63;;;21.00;49.90;;;;;;5050202;28;20059;-78
2022/06/01 09:36:27;;;;;;;1.75;0.60;;;21.10;49.70;;;;;;5019452;28;20048;-77
2022/06/01 09:38:55;;;;;;;1.98;0.80;;;21.10;49.30;;;;;;5032897;28;20052;-76
2022/06/01 09:41:31;;;;;;;1.25;0.60;;;21.10;48.60;;;;;;5018445;28;20428;-74
2022/06/01 09:44:01;;;;;;;1.95;0.90;;;21.10;48.90;;;;;;5059298;28;20504;-75
2022/06/01 09:46:34;;;;;;;2.55;0.68;;;21.10;47.00;;;;;;5068381;28;20395;-77
2022/06/01 09:49:04;;;;;;;1.95;0.55;;;21.10;48.10;;;;;;5064062;28;23193;-76
2022/06/01 09:51:34;;;;;;;2.70;0.90;;;21.10;48.10;;;;;;5068125;28;20139;-77
2022/06/01 09:54:14;;;;;;;1.05;0.50;;;21.10;46.70;;;;;;5066449;28;20041;-78
2022/06/01 09:56:46;;;;;;;1.95;0.50;;;21.10;47.90;;;;;;5075983;28;20484;-78
2022/06/01 10:07:48;;;;;;;1.05;0.40;;;21.50;47.30;;;;;;5063001;28;20036;-74
2022/06/01 10:10:24;;;;;;;0.73;0.50;;;21.60;47.10;;;;;;5063036;28;20044;-75
2022/06/01 10:12:55;;;;;;;1.95;0.60;;;21.60;46.90;;;;;;5066002;28;20123;-77
2022/06/01 10:15:32;;;;;;;0.95;0.50;;;21.60;46.80;;;;;;5068990;28;20102;-75
2022/06/01 10:18:05;;;;;;;1.42;0.45;;;21.60;46.50;;;;;;5051806;28;20139;-77
2022/06/01 10:20:38;;;;;;;1.17;0.60;;;21.60;46.50;;;;;;5050767;28;20535;-75
2022/06/01 10:23:09;;;;;;;1.65;0.50;;;21.60;46.10;;;;;;5070051;28;20123;-77
2022/06/01 10:25:42;;;;;;;1.70;0.50;;;21.60;46.60;;;;;;5050229;28;20053;-77
2022/06/01 10:28:15;;;;;;;1.23;0.55;;;21.60;46.40;;;;;;5051682;28;20048;-76
2022/06/01 10:30:47;;;;;;;2.42;0.50;;;21.60;46.60;;;;;;5069917;28;20203;-76
2022/06/01 10:33:20;;;;;;;2.53;0.65;;;21.60;46.20;;;;;;5073284;28;20480;-73
2022/06/01 10:35:51;;;;;;;2.05;0.60;;;21.60;46.50;;;;;;5075273;28;20047;-78
2022/06/01 10:38:25;;;;;;;1.40;0.60;;;21.60;46.40;;;;;;5071373;28;20067;-76
2022/06/01 10:40:59;;;;;;;2.45;0.50;;;21.60;46.50;;;;;;5069764;28;20504;-79
2022/06/01 10:43:38;;;;;;;2.05;0.47;;;21.50;46.40;;;;;;5052740;28;20161;-78
2022/06/01 10:46:19;;;;;;;1.67;0.70;;;21.50;46.30;;;;;;5078077;28;20554;-74
2022/06/01 10:48:52;;;;;;;0.98;0.52;;;21.40;46.20;;;;;;5071243;28;20127;-73
2022/06/01 10:51:23;;;;;;;0.73;0.55;;;21.40;46.10;;;;;;5073449;28;20486;-77
2022/06/01 10:53:59;;;;;;;3.53;0.55;;;21.50;46.40;;;;;;5072912;28;20060;-77
2022/06/01 10:56:27;;;;;;;1.80;0.63;;;21.70;46.10;;;;;;5069252;28;20568;-75
2022/06/01 10:58:59;;;;;;;1.85;0.60;;;21.80;46.00;;;;;;5064818;28;20323;-76
2022/06/01 11:01:40;;;;;;;3.72;0.90;;;21.80;45.70;;;;;;5063801;28;20403;-79
2022/06/01 11:04:40;;;;;;;1.65;0.80;;;21.90;45.20;;;;;;5067680;28;20125;-77
2022/06/01 11:07:31;;;;;;;1.27;0.70;;;21.90;44.80;;;;;;5071615;28;20492;-73
2022/06/01 11:10:06;;;;;;;2.13;0.80;;;21.90;44.80;;;;;;5050352;28;20407;-80
2022/06/01 11:12:45;;;;;;;2.00;0.75;;;21.80;44.60;;;;;;5064630;28;20076;-74
2022/06/01 11:15:24;;;;;;;2.28;0.88;;;21.70;44.90;;;;;;5068068;28;20049;-77
2022/06/01 11:18:01;;;;;;;2.88;1.23;;;21.70;45.30;;;;;;5055816;28;20044;-80
2022/06/01 11:20:52;;;;;;;4.78;1.08;;;21.70;45.60;;;;;;5053402;28;20052;-77
2022/06/01 11:23:44;;;;;;;1.38;0.75;;;21.80;45.50;;;;;;5072976;28;20075;-77
2022/06/01 11:26:20;;;;;;;1.80;0.82;;;21.80;45.50;;;;;;5069113;28;20575;-76
2022/06/01 11:29:02;;;;;;;3.60;1.15;;;21.80;45.60;;;;;;5074324;28;20040;-76
2022/06/01 11:31:30;;;;;;;2.67;0.70;;;21.60;45.00;;;;;;5036166;28;20056;-76
2022/06/01 11:34:02;;;;;;;2.83;1.00;;;21.60;45.10;;;;;;5046571;28;20454;-77
2022/06/01 11:36:38;;;;;;;1.85;0.73;;;21.60;45.00;;;;;;5069041;28;20049;-78
2022/06/01 11:39:19;;;;;;;1.27;0.65;;;21.60;45.50;;;;;;5067280;28;20051;-78
2022/06/01 11:41:59;;;;;;;1.70;0.77;;;21.60;45.50;;;;;;5053193;28;20058;-76
2022/06/01 11:44:34;;;;;;;3.85;0.80;;;21.70;45.40;;;;;;5066839;28;20048;-76
2022/06/01 11:47:05;;;;;;;4.57;0.70;;;21.70;45.30;;;;;;5065205;28;20055;-80
2022/06/01 11:49:37;;;;;;;1.52;0.70;;;21.80;45.20;;;;;;5071071;28;20047;-74
2022/06/01 11:52:17;;;;;;;1.75;0.70;;;21.90;45.20;;;;;;5050854;28;20044;-78
2022/06/01 11:54:44;;;;;;;1.60;0.70;;;21.90;45.10;;;;;;5051315;28;20512;-75
2022/06/01 11:57:25;;;;;;;1.02;0.60;;;21.90;45.10;;;;;;5072338;28;20045;-79
2022/06/01 11:59:55;;;;;;;3.63;1.00;;;21.90;44.60;;;;;;5074517;28;20507;-74
2022/06/01 12:02:42;;;;;;;1.58;0.63;;;21.80;44.70;;;;;;5068055;28;20044;-78
2022/06/01 12:05:13;;;;;;;1.67;0.65;;;21.80;44.00;;;;;;5059708;28;20049;-75
2022/06/01 12:07:46;;;;;;;1.33;0.70;;;21.70;44.60;;;;;;5060875;28;20048;-77
2022/06/01 12:10:24;;;;;;;1.98;0.80;;;21.70;44.90;;;;;;5078036;28;20048;-76
2022/06/01 12:13:04;;;;;;;1.10;0.70;;;21.60;44.90;;;;;;5076408;28;20040;-77
2022/06/01 12:15:37;;;;;;;2.45;0.55;;;21.60;44.60;;;;;;5078682;28;20048;-78
2022/06/01 12:18:29;;;;;;;1.65;0.60;;;21.60;44.80;;;;;;5060344;28;20049;-77
2022/06/01 12:21:28;;;;;;;1.58;0.70;;;21.60;44.40;;;;;;5071201;28;20514;-76
2022/06/01 12:30:06;;;;;;;3.78;0.73;;;21.50;44.50;;;;;;5082494;28;20064;-75
2022/06/01 12:33:09;;;;;;;1.45;0.70;;;21.50;44.50;;;;;;5049657;28;20529;-76
2022/06/01 12:35:47;;;;;;;1.33;0.50;;;21.60;44.80;;;;;;5074102;28;20492;-78
2022/06/01 12:38:22;;;;;;;1.75;0.60;;;21.60;44.90;;;;;;5080436;28;20487;-77
2022/06/01 12:41:03;;;;;;;1.95;0.50;;;21.60;44.80;;;;;;5079559;28;20117;-77
2022/06/01 12:43:31;;;;;;;3.10;0.70;;;21.70;44.90;;;;;;5080667;28;20056;-78
2022/06/01 12:45:59;;;;;;;0.70;0.47;;;21.80;45.10;;;;;;5061809;28;20140;-75
2022/06/01 12:48:27;;;;;;;0.57;0.40;;;21.90;45.00;;;;;;5082132;28;20044;-80
2022/06/01 12:50:57;;;;;;;0.40;0.30;;;22.00;44.20;;;;;;5060537;28;20051;-75
2022/06/01 12:53:40;;;;;;;1.48;0.70;;;22.10;44.20;;;;;;5081646;28;20461;-74
2022/06/01 12:56:09;;;;;;;1.88;0.60;;;22.10;43.40;;;;;;5073058;28;20579;-77
2022/06/01 12:58:39;;;;;;;1.25;0.47;;;22.10;43.30;;;;;;5079204;28;20040;-77
2022/06/01 13:01:07;;;;;;;2.50;0.65;;;22.10;43.10;;;;;;5074808;28;20495;-79
2022/06/01 13:03:34;;;;;;;1.13;0.50;;;22.10;42.40;;;;;;5077917;28;20071;-74
2022/06/01 13:06:08;;;;;;;1.15;0.57;;;22.10;40.60;;;;;;5062156;28;20057;-73
2022/06/01 13:08:39;;;;;;;1.80;0.50;;;22.10;41.80;;;;;;5077507;28;20064;-71
2022/06/01 13:11:19;;;;;;;2.10;0.50;;;22.10;41.20;;;;;;5079260;28;20044;-72
2022/06/01 13:13:46;;;;;;;2.15;0.60;;;22.10;40.00;;;;;;5072143;28;20047;-74
2022/06/01 13:16:13;;;;;;;0.93;0.40;;;22.10;41.50;;;;;;5059772;28;20051;-77
2022/06/01 13:18:43;;;;;;;1.02;0.40;;;22.10;41.40;;;;;;5080216;28;20043;-73
2022/06/01 13:21:17;;;;;;;1.42;0.55;;;22.10;41.90;;;;;;5044800;28;20573;-76
2022/06/01 13:23:54;;;;;;;1.50;0.50;;;22.10;41.60;;;;;;5080352;28;20045;-80
2022/06/01 13:26:29;;;;;;;1.25;0.45;;;22.10;41.60;;;;;;5075441;28;20059;-73
2022/06/01 13:29:10;;;;;;;0.82;0.45;;;22.10;42.00;;;;;;5074843;28;20041;-76
2022/06/01 13:31:39;;;;;;;1.20;0.50;;;22.10;42.00;;;;;;5060530;28;20059;-74
2022/06/01 13:34:07;;;;;;;2.25;0.60;;;22.10;41.40;;;;;;5076609;28;20052;-75
2022/06/01 13:36:40;;;;;;;0.57;0.40;;;22.10;41.10;;;;;;5079609;28;20584;-71